Time;durP1;ratioP1;P1;durP2;ratioP2;P2;SDS_P1;SDS_P2;PMS_P1;PMS_P2;Temp;Humidity;BMP_temperature;BMP_pressure;BME280_temperature;BME280_humidity;BME280_pressure;Samples;Min_cycle;Max_cycle;Signal;HPM_P1;HPM_P2
2022/04/23 00:00:17;;;;;;;2.70;1.00;;;19.00;99.90;;;;;;5090245;28;20202;-77
2022/04/23 00:02:47;;;;;;;2.53;1.00;;;19.10;99.90;;;;;;5088596;28;20677;-77
2022/04/23 00:05:18;;;;;;;3.00;0.65;;;19.10;99.90;;;;;;5074039;28;20659;-77
2022/04/23 00:07:50;;;;;;;1.88;0.77;;;19.20;99.90;;;;;;5069142;28;20272;-77
2022/04/23 00:10:21;;;;;;;2.42;0.80;;;19.20;99.90;;;;;;5069760;28;20253;-77
2022/04/23 00:12:54;;;;;;;1.92;0.90;;;19.20;99.90;;;;;;5070182;28;20662;-77
2022/04/23 00:15:25;;;;;;;1.95;0.80;;;19.30;99.90;;;;;;5070092;28;20772;-77
2022/04/23 00:17:56;;;;;;;2.50;0.80;;;19.30;99.90;;;;;;5070908;28;20234;-77
2022/04/23 00:20:29;;;;;;;0.88;0.50;;;19.40;99.90;;;;;;5089282;28;20199;-77
2022/04/23 00:23:02;;;;;;;3.53;0.90;;;19.50;99.90;;;;;;5082167;28;20607;-77
2022/04/23 00:25:33;;;;;;;3.03;0.85;;;19.50;99.90;;;;;;5070184;28;20563;-77
2022/04/23 00:28:04;;;;;;;2.95;0.57;;;19.60;99.90;;;;;;5070144;28;20601;-77
2022/04/23 00:30:35;;;;;;;3.08;0.60;;;19.70;99.90;;;;;;5070014;28;20199;-77
2022/04/23 00:33:06;;;;;;;3.40;0.65;;;19.70;99.90;;;;;;5060905;28;20241;-76
2022/04/23 00:35:38;;;;;;;1.55;0.70;;;19.80;99.90;;;;;;5057578;28;20215;-76
2022/04/23 00:38:10;;;;;;;1.45;0.73;;;19.80;99.90;;;;;;5057327;28;20227;-76
2022/04/23 00:40:41;;;;;;;3.45;0.95;;;19.90;99.90;;;;;;5060439;28;20203;-76
2022/04/23 00:43:26;;;;;;;3.40;0.73;;;20.00;99.90;;;;;;5059492;28;20776;-76
2022/04/23 00:45:57;;;;;;;2.05;0.73;;;20.10;99.90;;;;;;5065039;28;20195;-76
2022/04/23 00:48:29;;;;;;;2.30;0.70;;;20.10;99.90;;;;;;5065028;28;20278;-76
2022/04/23 00:51:05;;;;;;;1.55;0.60;;;20.20;99.90;;;;;;5061023;28;20231;-76
2022/04/23 00:53:38;;;;;;;0.85;0.55;;;20.20;99.90;;;;;;5060850;28;20270;-76
2022/04/23 00:56:09;;;;;;;3.30;0.82;;;20.30;99.90;;;;;;5060277;28;20238;-76
2022/04/23 00:58:40;;;;;;;2.92;0.80;;;20.30;99.90;;;;;;5061126;28;20226;-76
2022/04/23 01:01:11;;;;;;;2.00;0.70;;;20.30;99.90;;;;;;5062717;28;20301;-76
2022/04/23 01:03:42;;;;;;;2.75;0.80;;;20.30;99.90;;;;;;5060658;28;20207;-76
2022/04/23 01:06:13;;;;;;;2.90;0.80;;;20.30;99.90;;;;;;5062749;28;20286;-76
2022/04/23 01:08:46;;;;;;;1.35;0.70;;;20.30;99.90;;;;;;5063668;28;20235;-76
2022/04/23 01:11:17;;;;;;;2.38;0.80;;;20.40;99.90;;;;;;5062148;28;20191;-76
2022/04/23 01:13:48;;;;;;;3.88;0.80;;;20.50;99.90;;;;;;5061054;28;20214;-75
2022/04/23 01:16:19;;;;;;;2.63;0.63;;;20.60;99.90;;;;;;5062611;28;20191;-76
2022/04/23 01:18:50;;;;;;;2.70;0.90;;;20.60;99.90;;;;;;5060309;28;20362;-76
2022/04/23 01:21:23;;;;;;;1.70;0.75;;;20.60;99.90;;;;;;5058683;28;20192;-76
2022/04/23 01:23:54;;;;;;;2.40;1.02;;;20.70;99.90;;;;;;5075612;28;20195;-76
2022/04/23 01:26:29;;;;;;;2.63;0.80;;;20.80;99.90;;;;;;5087218;28;20204;-75
2022/04/23 01:29:00;;;;;;;1.05;0.60;;;20.90;99.90;;;;;;5080674;28;20570;-75
2022/04/23 01:31:32;;;;;;;1.35;0.55;;;21.00;99.90;;;;;;5091815;28;20241;-75
2022/04/23 01:34:02;;;;;;;2.70;1.00;;;21.00;99.90;;;;;;5082139;28;20219;-76
2022/04/23 01:36:35;;;;;;;1.70;0.65;;;21.00;99.90;;;;;;5087381;28;20192;-76
2022/04/23 01:39:05;;;;;;;2.92;0.70;;;21.00;99.90;;;;;;5072657;28;20604;-76
2022/04/23 01:41:36;;;;;;;2.92;0.70;;;21.10;99.90;;;;;;5091035;28;20646;-75
2022/04/23 01:44:06;;;;;;;2.17;0.60;;;21.10;99.90;;;;;;5081149;28;20254;-76
2022/04/23 01:46:37;;;;;;;2.00;0.60;;;21.20;99.90;;;;;;5076177;28;20192;-76
2022/04/23 01:49:08;;;;;;;3.17;0.82;;;21.30;99.90;;;;;;5085058;28;20195;-76
2022/04/23 01:51:40;;;;;;;2.60;0.68;;;21.40;99.90;;;;;;5078889;28;20235;-76
2022/04/23 01:54:11;;;;;;;1.98;0.70;;;21.40;99.90;;;;;;5073722;28;20198;-76
2022/04/23 01:56:41;;;;;;;1.77;0.60;;;21.40;99.90;;;;;;5072224;28;20204;-76
2022/04/23 01:59:12;;;;;;;1.42;0.70;;;21.40;99.90;;;;;;5072052;28;20208;-76
2022/04/23 02:01:43;;;;;;;2.75;0.73;;;21.40;99.90;;;;;;5080978;28;20192;-76
2022/04/23 02:04:13;;;;;;;2.03;0.55;;;21.50;99.90;;;;;;5087104;28;20279;-76
2022/04/23 02:06:46;;;;;;;1.42;0.40;;;21.50;99.90;;;;;;5073749;28;20277;-76
2022/04/23 02:09:17;;;;;;;2.10;0.50;;;21.50;99.90;;;;;;5089285;28;20203;-76
2022/04/23 02:11:48;;;;;;;0.73;0.40;;;21.40;99.90;;;;;;5086605;28;20195;-76
2022/04/23 02:14:19;;;;;;;1.95;0.50;;;21.30;99.90;;;;;;5090899;28;20206;-76
2022/04/23 02:16:49;;;;;;;1.85;0.60;;;21.30;99.90;;;;;;5071767;28;20188;-75
2022/04/23 02:19:20;;;;;;;1.92;0.40;;;21.40;99.90;;;;;;5071071;28;20265;-76
2022/04/23 02:21:52;;;;;;;1.30;0.20;;;21.40;99.90;;;;;;5071786;28;20205;-75
2022/04/23 02:24:24;;;;;;;1.10;0.40;;;21.50;99.90;;;;;;5071816;28;20242;-75
2022/04/23 02:26:54;;;;;;;1.40;0.45;;;21.60;99.90;;;;;;5091462;28;20195;-75
2022/04/23 02:29:25;;;;;;;1.08;0.32;;;21.70;99.90;;;;;;5077861;28;20214;-76
2022/04/23 02:31:55;;;;;;;1.20;0.57;;;21.80;99.90;;;;;;5067473;28;20497;-78
2022/04/23 02:34:26;;;;;;;1.98;0.50;;;21.90;99.90;;;;;;5067956;28;20204;-76
2022/04/23 02:36:58;;;;;;;1.83;0.40;;;21.90;99.90;;;;;;5070982;28;20257;-78
2022/04/23 02:39:29;;;;;;;1.23;0.40;;;22.00;99.90;;;;;;5073662;28;20249;-79
2022/04/23 02:41:59;;;;;;;2.42;0.80;;;22.10;99.90;;;;;;5092723;28;20230;-81
2022/04/23 02:44:30;;;;;;;1.52;0.80;;;22.20;99.90;;;;;;5090633;28;20524;-79
2022/04/23 02:47:01;;;;;;;1.23;0.50;;;22.30;99.90;;;;;;5082996;28;20607;-79
2022/04/23 02:49:31;;;;;;;1.42;0.50;;;22.40;99.90;;;;;;5079569;28;20206;-82
2022/04/23 02:52:04;;;;;;;2.47;0.77;;;22.50;99.90;;;;;;5086031;28;20231;-76
2022/04/23 02:54:34;;;;;;;0.93;0.40;;;22.60;99.90;;;;;;5088721;28;20200;-77
2022/04/23 02:57:05;;;;;;;3.50;0.93;;;22.70;99.90;;;;;;5071933;28;20347;-77
2022/04/23 02:59:36;;;;;;;1.67;0.63;;;22.70;99.90;;;;;;5071641;28;20196;-74
2022/04/23 03:02:07;;;;;;;1.40;0.60;;;22.70;99.90;;;;;;5082697;28;20199;-74
2022/04/23 03:04:38;;;;;;;2.13;0.65;;;22.70;99.90;;;;;;5084698;28;20200;-75
2022/04/23 03:07:10;;;;;;;1.20;0.50;;;22.80;99.90;;;;;;5088354;28;20582;-77
2022/04/23 03:09:41;;;;;;;3.28;0.50;;;22.90;99.90;;;;;;5087534;28;20203;-76
2022/04/23 03:12:12;;;;;;;1.50;0.60;;;23.00;99.90;;;;;;5093432;28;20187;-77
2022/04/23 03:14:43;;;;;;;5.65;0.80;;;23.10;99.90;;;;;;5092202;28;20203;-76
2022/04/23 03:17:13;;;;;;;3.08;0.80;;;23.10;99.90;;;;;;5091401;28;20644;-76
2022/04/23 03:19:44;;;;;;;3.72;0.75;;;23.10;99.90;;;;;;5092268;28;20195;-76
2022/04/23 03:22:17;;;;;;;2.88;0.65;;;23.20;99.90;;;;;;5084078;28;20199;-76
2022/04/23 03:24:48;;;;;;;3.25;0.65;;;23.20;99.90;;;;;;5083038;28;20219;-76
2022/04/23 03:27:18;;;;;;;0.85;0.47;;;23.20;99.90;;;;;;5072142;28;20196;-76
2022/04/23 03:29:49;;;;;;;1.63;0.50;;;23.30;99.90;;;;;;5071602;28;20200;-76
2022/04/23 03:32:20;;;;;;;2.00;0.70;;;23.30;99.90;;;;;;5070586;28;20199;-76
2022/04/23 03:34:51;;;;;;;1.67;0.43;;;23.30;99.90;;;;;;5086147;28;20280;-76
2022/04/23 03:37:23;;;;;;;2.35;0.68;;;23.30;99.90;;;;;;5090926;28;20199;-76
2022/04/23 03:39:54;;;;;;;2.13;0.60;;;23.10;99.90;;;;;;5079048;28;20265;-75
2022/04/23 03:42:25;;;;;;;4.78;0.82;;;23.00;99.90;;;;;;5089637;28;20199;-75
2022/04/23 03:44:55;;;;;;;2.22;0.45;;;22.90;99.90;;;;;;5073147;28;21095;-76
2022/04/23 03:47:26;;;;;;;1.63;0.40;;;22.90;99.90;;;;;;5070423;28;20616;-76
2022/04/23 03:49:57;;;;;;;2.03;0.47;;;22.90;99.90;;;;;;5070537;28;20199;-75
2022/04/23 03:52:29;;;;;;;2.40;0.50;;;22.80;99.90;;;;;;5062467;28;20651;-79
2022/04/23 03:55:00;;;;;;;1.70;0.45;;;22.90;99.90;;;;;;5070652;28;20191;-79
2022/04/23 03:57:31;;;;;;;1.58;0.50;;;22.90;99.90;;;;;;5070659;28;20651;-79
2022/04/23 04:00:04;;;;;;;2.47;0.50;;;22.90;99.90;;;;;;5069277;28;20655;-79
2022/04/23 04:02:35;;;;;;;2.38;0.50;;;22.80;99.90;;;;;;5054135;28;20205;-79
2022/04/23 04:05:06;;;;;;;3.90;0.50;;;22.80;99.90;;;;;;5050918;28;20205;-79
2022/04/23 04:07:42;;;;;;;1.90;0.50;;;22.80;99.90;;;;;;5050531;28;20203;-79
2022/04/23 04:10:18;;;;;;;1.65;0.50;;;22.80;99.90;;;;;;5050680;28;20610;-80
2022/04/23 04:12:49;;;;;;;1.50;0.40;;;22.70;99.90;;;;;;5059548;28;20200;-79
2022/04/23 04:15:20;;;;;;;1.88;0.47;;;22.70;99.90;;;;;;5068424;28;20219;-79
2022/04/23 04:17:53;;;;;;;3.78;0.50;;;22.80;99.90;;;;;;5069907;28;20220;-79
2022/04/23 04:20:24;;;;;;;1.52;0.43;;;22.80;99.90;;;;;;5073416;28;20241;-79
2022/04/23 04:22:57;;;;;;;1.88;0.20;;;22.70;99.90;;;;;;5074394;28;20208;-78
2022/04/23 04:25:27;;;;;;;2.80;0.60;;;22.70;99.90;;;;;;5074618;28;20295;-79
2022/04/23 04:27:58;;;;;;;0.95;0.40;;;22.60;99.90;;;;;;5066824;28;20250;-79
2022/04/23 04:31:46;;;;;;;1.50;0.40;;;22.60;99.90;;;;;;5054369;28;20199;-80
2022/04/23 04:33:20;;;;;;;1.85;0.40;;;22.60;99.90;;;;;;5058632;28;20275;-79
2022/04/23 04:35:51;;;;;;;2.05;0.40;;;22.60;99.90;;;;;;5074315;28;20199;-79
2022/04/23 04:38:23;;;;;;;1.13;0.30;;;22.60;99.90;;;;;;5073467;28;20694;-79
2022/04/23 04:40:54;;;;;;;2.80;0.50;;;22.60;99.90;;;;;;5064065;28;20254;-79
2022/04/23 04:43:25;;;;;;;0.95;0.40;;;22.60;99.90;;;;;;5053218;28;20188;-79
2022/04/23 04:45:56;;;;;;;0.65;0.30;;;22.50;99.90;;;;;;5054296;28;20219;-79
2022/04/23 04:48:27;;;;;;;1.65;0.40;;;22.60;99.90;;;;;;5070524;28;20200;-79
2022/04/23 04:50:57;;;;;;;2.05;0.50;;;22.60;99.90;;;;;;5080588;28;20214;-79
2022/04/23 04:53:30;;;;;;;1.73;0.50;;;22.60;99.90;;;;;;5094111;28;20199;-80
2022/04/23 04:56:00;;;;;;;3.58;0.50;;;22.60;99.90;;;;;;5094547;28;20276;-80
2022/04/23 04:58:31;;;;;;;1.90;0.60;;;22.50;99.90;;;;;;5094338;28;20227;-80
2022/04/23 05:01:02;;;;;;;1.70;0.50;;;22.40;99.90;;;;;;5074883;28;20196;-80
2022/04/23 05:03:32;;;;;;;1.77;0.50;;;22.50;99.90;;;;;;5074244;28;20200;-79
2022/04/23 05:06:03;;;;;;;2.10;0.55;;;22.50;99.90;;;;;;5074061;28;20249;-79
2022/04/23 05:08:36;;;;;;;0.80;0.40;;;22.40;99.90;;;;;;5074853;28;20265;-79
2022/04/23 05:11:08;;;;;;;1.70;0.60;;;22.40;99.90;;;;;;5074291;28;20204;-79
2022/04/23 05:13:38;;;;;;;2.38;0.57;;;22.40;99.90;;;;;;5082592;28;20282;-79
2022/04/23 05:16:10;;;;;;;2.47;0.50;;;22.30;99.90;;;;;;5093774;28;20201;-79
2022/04/23 05:18:40;;;;;;;1.13;0.55;;;22.20;99.90;;;;;;5077315;28;20690;-78
2022/04/23 05:21:11;;;;;;;0.65;0.35;;;22.20;99.90;;;;;;5093661;28;20256;-79
2022/04/23 05:23:44;;;;;;;2.95;0.60;;;22.10;99.90;;;;;;5093224;28;20195;-79
2022/04/23 05:26:14;;;;;;;3.38;0.70;;;22.10;99.90;;;;;;5073173;28;20196;-79
2022/04/23 05:28:45;;;;;;;1.38;0.40;;;22.10;99.90;;;;;;5073087;28;20246;-79
2022/04/23 05:31:16;;;;;;;0.95;0.45;;;22.10;99.90;;;;;;5073168;28;20233;-79
2022/04/23 05:33:46;;;;;;;1.50;0.50;;;22.10;99.90;;;;;;5082218;28;20195;-79
2022/04/23 05:36:17;;;;;;;1.27;0.40;;;22.10;99.90;;;;;;5073283;28;20196;-79
2022/04/23 05:38:49;;;;;;;3.08;0.50;;;22.00;99.90;;;;;;5073556;28;20224;-79
2022/04/23 05:41:20;;;;;;;1.25;0.38;;;22.00;99.90;;;;;;5072341;28;20196;-80
2022/04/23 05:43:50;;;;;;;0.90;0.50;;;22.00;99.90;;;;;;5084423;28;20196;-77
2022/04/23 05:46:21;;;;;;;2.25;0.50;;;22.00;99.90;;;;;;5072883;28;20206;-77
2022/04/23 05:48:52;;;;;;;2.08;0.50;;;22.00;99.90;;;;;;5084273;28;20609;-78
2022/04/23 05:51:23;;;;;;;1.52;0.40;;;22.00;99.90;;;;;;5092692;28;20231;-79
2022/04/23 05:53:56;;;;;;;1.58;0.40;;;22.00;99.90;;;;;;5093009;28;20195;-78
2022/04/23 05:56:26;;;;;;;0.90;0.35;;;22.00;99.90;;;;;;5092016;28;20245;-77
2022/04/23 05:58:57;;;;;;;1.52;0.50;;;22.10;99.90;;;;;;5082849;28;20728;-77
2022/04/23 06:01:28;;;;;;;0.65;0.40;;;22.10;99.90;;;;;;5072531;28;20200;-77
2022/04/23 06:03:58;;;;;;;0.88;0.30;;;22.20;99.90;;;;;;5072348;28;20192;-77
2022/04/23 06:06:29;;;;;;;1.17;0.40;;;22.20;99.90;;;;;;5072599;28;20195;-78
2022/04/23 06:09:02;;;;;;;1.35;0.40;;;22.20;99.90;;;;;;5072499;28;20203;-78
2022/04/23 06:11:33;;;;;;;1.13;0.45;;;22.30;99.90;;;;;;5072454;28;20196;-77
2022/04/23 06:14:03;;;;;;;1.00;0.40;;;22.40;99.90;;;;;;5073731;28;20200;-79
2022/04/23 06:16:34;;;;;;;3.65;0.50;;;22.60;99.90;;;;;;5087659;28;20403;-79
2022/04/23 06:19:05;;;;;;;2.25;0.70;;;22.60;99.90;;;;;;5093063;28;20313;-79
2022/04/23 06:21:35;;;;;;;1.48;0.50;;;22.70;99.90;;;;;;5086378;28;20196;-79
2022/04/23 06:24:08;;;;;;;2.13;0.40;;;22.70;99.90;;;;;;5072306;28;20250;-78
2022/04/23 06:26:39;;;;;;;1.75;0.52;;;22.80;99.90;;;;;;5072320;28;20547;-79
2022/04/23 06:29:10;;;;;;;1.42;0.30;;;22.80;99.90;;;;;;5074985;28;20224;-79
2022/04/23 06:31:40;;;;;;;1.67;0.47;;;22.90;99.90;;;;;;5094678;28;20184;-81
2022/04/23 06:34:11;;;;;;;1.15;0.60;;;23.00;99.90;;;;;;5097536;28;20202;-82
2022/04/23 06:36:42;;;;;;;1.30;0.50;;;23.10;99.90;;;;;;5084147;28;20575;-79
2022/04/23 06:39:14;;;;;;;1.45;0.40;;;22.90;99.90;;;;;;5076648;28;20223;-77
2022/04/23 06:41:45;;;;;;;2.78;0.70;;;23.00;99.90;;;;;;5082370;28;20282;-77
2022/04/23 06:44:16;;;;;;;2.20;0.63;;;22.80;99.90;;;;;;5093136;28;20232;-76
2022/04/23 06:46:46;;;;;;;1.55;0.55;;;22.90;99.90;;;;;;5074863;28;20605;-75
2022/04/23 06:49:17;;;;;;;0.52;0.40;;;22.90;99.90;;;;;;5072862;28;20211;-76
2022/04/23 06:51:47;;;;;;;1.50;0.63;;;22.80;99.90;;;;;;5072075;28;20223;-78
2022/04/23 06:54:20;;;;;;;1.80;0.55;;;22.70;99.90;;;;;;5071998;28;20195;-76
2022/04/23 06:56:51;;;;;;;2.28;0.40;;;22.50;99.90;;;;;;5071136;28;20605;-76
2022/04/23 06:59:21;;;;;;;0.95;0.38;;;22.40;99.90;;;;;;5071299;28;20637;-76
2022/04/23 07:01:52;;;;;;;2.42;0.70;;;22.30;99.90;;;;;;5088724;28;20227;-76
2022/04/23 07:04:25;;;;;;;1.42;0.60;;;22.10;99.90;;;;;;5090912;28;20203;-76
2022/04/23 07:06:56;;;;;;;2.00;0.70;;;22.00;99.90;;;;;;5081623;28;20291;-76
2022/04/23 07:09:28;;;;;;;1.15;0.80;;;21.80;99.90;;;;;;5071325;28;20655;-76
2022/04/23 07:11:59;;;;;;;2.13;0.80;;;21.80;99.90;;;;;;5070827;28;20204;-76
2022/04/23 07:14:29;;;;;;;1.20;0.60;;;21.60;99.90;;;;;;5071151;28;20198;-75
2022/04/23 07:17:00;;;;;;;1.73;0.60;;;21.50;99.90;;;;;;5071119;28;20265;-76
2022/04/23 07:19:32;;;;;;;1.90;0.90;;;21.40;99.90;;;;;;5070890;28;20227;-76
2022/04/23 07:22:03;;;;;;;1.25;0.77;;;21.30;99.90;;;;;;5071377;28;20196;-77
2022/04/23 07:24:35;;;;;;;1.80;0.90;;;21.20;99.90;;;;;;5071368;28;20204;-76
2022/04/23 07:27:06;;;;;;;2.97;0.70;;;21.20;99.90;;;;;;5071083;28;20199;-76
2022/04/23 07:29:39;;;;;;;2.35;0.80;;;21.10;99.90;;;;;;5071124;28;20616;-76
2022/04/23 07:32:11;;;;;;;2.63;0.77;;;21.00;99.90;;;;;;5070883;28;20253;-76
2022/04/23 07:37:33;;;;;;;1.27;0.90;;;20.80;99.90;;;;;;5037131;28;20634;-76
2022/04/23 07:40:10;;;;;;;4.22;1.80;;;20.90;99.90;;;;;;5070558;28;20227;-75
2022/04/23 07:42:40;;;;;;;2.40;1.60;;;20.80;99.90;;;;;;5070524;28;20278;-76
2022/04/23 07:45:11;;;;;;;3.75;1.52;;;20.70;99.90;;;;;;5070687;28;20249;-75
2022/04/23 07:47:42;;;;;;;4.13;2.40;;;20.80;99.90;;;;;;5070640;28;20278;-75
2022/04/23 07:50:13;;;;;;;3.45;1.95;;;20.70;99.90;;;;;;5070194;28;20332;-75
2022/04/23 07:52:43;;;;;;;2.38;1.48;;;20.70;99.90;;;;;;5070171;28;20216;-75
2022/04/23 07:55:16;;;;;;;2.28;1.48;;;20.70;99.90;;;;;;5070499;28;20196;-76
2022/04/23 07:57:46;;;;;;;3.40;1.40;;;20.70;99.90;;;;;;5078084;28;20222;-75
2022/04/23 08:00:18;;;;;;;3.78;1.38;;;20.70;99.90;;;;;;5090460;28;20279;-75
2022/04/23 08:02:48;;;;;;;2.58;1.00;;;20.60;99.90;;;;;;5090757;28;20200;-79
2022/04/23 08:05:19;;;;;;;2.40;0.98;;;20.60;99.90;;;;;;5077385;28;20204;-78
2022/04/23 08:07:50;;;;;;;3.15;1.17;;;20.50;99.90;;;;;;5070528;28;20196;-78
2022/04/23 08:10:22;;;;;;;2.58;0.95;;;20.50;99.90;;;;;;5070402;28;20728;-78
2022/04/23 08:12:54;;;;;;;2.70;1.02;;;20.50;99.90;;;;;;5069718;28;20561;-79
2022/04/23 08:15:26;;;;;;;2.38;1.35;;;20.50;99.90;;;;;;5083965;28;20199;-79
2022/04/23 08:17:57;;;;;;;1.60;1.27;;;20.40;99.90;;;;;;5077499;28;20194;-76
2022/04/23 08:20:27;;;;;;;3.42;1.60;;;20.40;99.90;;;;;;5090333;28;20723;-76
2022/04/23 08:22:58;;;;;;;3.70;1.50;;;20.40;99.90;;;;;;5083785;28;20734;-77
2022/04/23 08:25:30;;;;;;;3.47;1.60;;;20.40;99.90;;;;;;5073149;28;20199;-77
2022/04/23 08:30:34;;;;;;;2.00;1.20;;;20.40;99.90;;;;;;5069990;28;20250;-76
2022/04/23 08:30:51;;;;;;;3.55;1.60;;;20.30;99.90;;;;;;5070033;28;20307;-77
2022/04/23 08:33:21;;;;;;;2.20;1.20;;;20.30;99.90;;;;;;5070558;28;20563;-77
2022/04/23 08:35:52;;;;;;;6.68;1.80;;;20.30;99.90;;;;;;5070288;28;20196;-75
2022/04/23 08:38:22;;;;;;;3.03;1.55;;;20.20;99.90;;;;;;5069837;28;20544;-76
2022/04/23 08:40:55;;;;;;;2.83;1.70;;;20.20;99.90;;;;;;5069845;28;20224;-76
2022/04/23 08:43:26;;;;;;;3.80;1.90;;;20.20;99.90;;;;;;5069688;28;20200;-76
2022/04/23 08:45:56;;;;;;;3.70;1.95;;;20.20;99.90;;;;;;5069738;28;20246;-76
2022/04/23 08:48:33;;;;;;;2.67;1.55;;;20.20;99.90;;;;;;5070049;28;20208;-76
2022/04/23 08:51:05;;;;;;;3.25;1.55;;;20.10;99.90;;;;;;5069454;28;20231;-76
2022/04/23 08:53:42;;;;;;;2.92;1.63;;;20.10;99.90;;;;;;5070531;28;20650;-76
2022/04/23 08:56:15;;;;;;;3.47;2.00;;;20.10;99.90;;;;;;5070112;28;20226;-75
2022/04/23 08:58:46;;;;;;;2.38;1.60;;;20.10;99.90;;;;;;5069787;28;20196;-75
2022/04/23 09:01:18;;;;;;;2.80;1.48;;;20.00;99.90;;;;;;5069706;28;20219;-76
2022/04/23 09:03:48;;;;;;;2.95;1.30;;;20.00;99.90;;;;;;5088222;28;20297;-76
2022/04/23 09:06:19;;;;;;;2.95;1.50;;;20.00;99.90;;;;;;5080717;28;20681;-76
2022/04/23 09:09:10;;;;;;;2.95;1.65;;;20.00;99.90;;;;;;5076548;28;20280;-76
2022/04/23 09:11:46;;;;;;;2.58;1.48;;;20.10;99.90;;;;;;5072754;28;20200;-76
2022/04/23 09:14:30;;;;;;;2.47;1.52;;;20.00;99.90;;;;;;5078391;28;20217;-76
2022/04/23 09:25:34;;;;;;;2.95;2.03;;;20.00;99.90;;;;;;5093633;28;20243;-75
2022/04/23 09:28:26;;;;;;;3.15;1.92;;;19.90;99.90;;;;;;5093546;28;20655;-76
2022/04/23 09:30:59;;;;;;;4.25;1.88;;;19.90;99.90;;;;;;5093725;28;20708;-76
2022/04/23 09:33:49;;;;;;;2.83;1.70;;;19.90;99.90;;;;;;5093362;28;20199;-76
2022/04/23 09:36:19;;;;;;;2.90;1.40;;;19.80;99.90;;;;;;5091116;28;20245;-75
2022/04/23 09:39:03;;;;;;;2.67;1.48;;;19.80;99.90;;;;;;5073475;28;20200;-76
2022/04/23 09:41:39;;;;;;;2.55;1.55;;;19.80;99.90;;;;;;5084029;28;20192;-75
2022/04/23 09:44:12;;;;;;;3.70;1.42;;;19.80;99.90;;;;;;5075401;28;20202;-75
2022/04/23 09:46:47;;;;;;;1.48;1.23;;;19.80;99.90;;;;;;5072130;28;20321;-75
2022/04/23 09:49:23;;;;;;;1.98;1.10;;;19.80;99.90;;;;;;5072323;28;20225;-75
2022/04/23 09:52:05;;;;;;;2.30;0.98;;;19.80;99.90;;;;;;5082060;28;20226;-78
2022/04/23 09:54:36;;;;;;;1.13;0.63;;;19.80;99.90;;;;;;5085655;28;20196;-77
2022/04/23 09:57:07;;;;;;;1.45;0.90;;;19.80;99.90;;;;;;5080443;28;20204;-75
2022/04/23 09:59:40;;;;;;;1.95;0.98;;;19.80;99.90;;;;;;5072036;28;20279;-77
2022/04/23 10:02:18;;;;;;;2.47;0.98;;;19.80;99.90;;;;;;5079420;28;20241;-77
2022/04/23 10:04:49;;;;;;;1.77;0.98;;;19.80;99.90;;;;;;5093509;28;20191;-78
2022/04/23 10:07:24;;;;;;;1.88;0.90;;;19.80;99.90;;;;;;5078782;28;20203;-76
2022/04/23 10:09:57;;;;;;;1.88;1.10;;;19.80;99.90;;;;;;5070903;28;20291;-75
2022/04/23 10:12:29;;;;;;;1.90;1.00;;;19.80;99.90;;;;;;5091819;28;20565;-76
2022/04/23 10:15:04;;;;;;;3.70;1.20;;;19.80;99.90;;;;;;5090073;28;20275;-76
2022/04/23 10:17:37;;;;;;;2.58;1.30;;;19.80;99.90;;;;;;5092629;28;20606;-76
2022/04/23 10:20:11;;;;;;;2.10;1.10;;;19.80;99.90;;;;;;5092981;28;20226;-75
2022/04/23 10:22:56;;;;;;;2.25;1.40;;;19.90;99.90;;;;;;5085621;28;20244;-75
2022/04/23 10:25:42;;;;;;;2.83;1.50;;;19.80;99.90;;;;;;5092323;28;20222;-75
2022/04/23 10:28:13;;;;;;;2.15;1.30;;;19.80;99.90;;;;;;5092384;28;20199;-75
2022/04/23 10:30:48;;;;;;;2.83;1.30;;;19.80;99.90;;;;;;5082974;28;20727;-76
2022/04/23 10:33:31;;;;;;;2.95;1.60;;;19.80;99.90;;;;;;5072117;28;20196;-75
2022/04/23 10:36:10;;;;;;;3.45;1.42;;;19.70;99.90;;;;;;5072172;28;20246;-79
2022/04/23 10:38:51;;;;;;;2.97;1.50;;;19.70;99.90;;;;;;5071067;28;20532;-75
2022/04/23 10:41:23;;;;;;;3.92;1.67;;;19.70;99.90;;;;;;5072828;28;20268;-76
2022/04/23 10:43:54;;;;;;;2.80;1.58;;;19.70;99.90;;;;;;5092222;28;20685;-76
2022/04/23 10:46:50;;;;;;;3.85;1.70;;;19.60;99.90;;;;;;5092136;28;20191;-75
2022/04/23 10:49:22;;;;;;;2.58;1.35;;;19.60;99.90;;;;;;5075694;28;20206;-75
2022/04/23 10:51:57;;;;;;;3.33;1.88;;;19.60;99.90;;;;;;5071332;28;20228;-75
2022/04/23 10:55:00;;;;;;;3.05;1.48;;;19.60;99.90;;;;;;5071479;28;20708;-75
2022/04/23 10:57:30;;;;;;;3.85;1.50;;;19.60;99.90;;;;;;5074794;28;20195;-76
2022/04/23 11:00:13;;;;;;;2.72;1.35;;;19.50;99.90;;;;;;5084688;28;20269;-76
2022/04/23 11:02:49;;;;;;;2.80;1.40;;;19.50;99.90;;;;;;5077026;28;20199;-76
2022/04/23 11:14:30;;;;;;;3.05;0.98;;;19.50;99.90;;;;;;5071307;28;20604;-77
2022/04/23 11:17:01;;;;;;;2.05;0.98;;;19.50;99.90;;;;;;5084310;28;20269;-77
2022/04/23 11:19:34;;;;;;;2.53;0.90;;;19.50;99.90;;;;;;5091569;28;20199;-77
2022/04/23 11:22:06;;;;;;;2.50;0.93;;;19.60;99.90;;;;;;5080421;28;20204;-76
2022/04/23 11:24:37;;;;;;;2.30;1.15;;;19.60;99.90;;;;;;5073899;28;20194;-76
2022/04/23 11:27:09;;;;;;;1.65;0.95;;;19.60;99.90;;;;;;5080752;28;20236;-76
2022/04/23 11:29:41;;;;;;;3.00;1.38;;;19.70;99.90;;;;;;5091338;28;20195;-76
2022/04/23 11:32:12;;;;;;;5.15;2.80;;;19.70;99.90;;;;;;5076644;28;20195;-76
2022/04/23 11:35:02;;;;;;;3.53;2.50;;;19.70;99.90;;;;;;5090616;28;20199;-81
2022/04/23 11:37:33;;;;;;;3.83;2.53;;;19.70;99.90;;;;;;5091044;28;20567;-75
2022/04/23 11:40:12;;;;;;;4.10;2.80;;;19.60;99.90;;;;;;5089439;28;20233;-74
2022/04/23 11:42:46;;;;;;;4.25;2.50;;;19.60;99.90;;;;;;5091286;28;20201;-75
2022/04/23 11:45:18;;;;;;;4.97;2.28;;;19.60;99.90;;;;;;5088080;28;20547;-76
2022/04/23 11:47:49;;;;;;;3.08;1.98;;;19.60;99.90;;;;;;5090309;28;20590;-75
2022/04/23 11:50:24;;;;;;;3.25;2.28;;;19.60;99.90;;;;;;5090570;28;20207;-75
2022/04/23 11:53:01;;;;;;;3.42;1.60;;;19.60;99.90;;;;;;5082020;28;20306;-76
2022/04/23 11:55:32;;;;;;;4.63;1.60;;;19.60;99.90;;;;;;5083977;28;20203;-75
2022/04/23 11:58:04;;;;;;;2.03;1.30;;;19.60;99.90;;;;;;5076495;28;20203;-75
2022/04/23 12:00:35;;;;;;;2.33;1.33;;;19.60;99.90;;;;;;5090223;28;20711;-75
2022/04/23 12:03:09;;;;;;;2.83;1.35;;;19.60;99.90;;;;;;5091065;28;20224;-76
2022/04/23 12:05:42;;;;;;;1.40;0.80;;;19.60;99.90;;;;;;5091110;28;20282;-76
2022/04/23 12:08:23;;;;;;;1.50;1.00;;;19.50;99.90;;;;;;5090450;28;20191;-75
2022/04/23 12:11:04;;;;;;;2.58;1.00;;;19.60;99.90;;;;;;5079825;28;20196;-76
2022/04/23 12:13:37;;;;;;;1.85;1.08;;;19.50;99.90;;;;;;5069600;28;20234;-75
2022/04/23 12:16:08;;;;;;;2.17;1.10;;;19.50;99.90;;;;;;5070302;28;20196;-75
2022/04/23 12:18:39;;;;;;;2.90;1.27;;;19.50;99.90;;;;;;5070566;28;20691;-75
2022/04/23 12:21:11;;;;;;;2.10;1.33;;;19.50;99.90;;;;;;5070686;28;20231;-75
2022/04/23 12:23:45;;;;;;;3.05;1.42;;;19.50;99.90;;;;;;5070081;28;20196;-75
2022/04/23 12:26:19;;;;;;;2.03;1.40;;;19.50;99.90;;;;;;5070888;28;20196;-76
2022/04/23 12:43:28;;;;;;;3.47;2.00;;;19.40;99.90;;;;;;5074960;28;20572;-81
2022/04/23 12:46:09;;;;;;;3.25;2.28;;;19.40;99.90;;;;;;5083614;28;20256;-77
2022/04/23 12:49:03;;;;;;;4.28;2.47;;;19.30;99.90;;;;;;5074318;28;20196;-77
2022/04/23 12:51:34;;;;;;;4.32;2.60;;;19.30;99.90;;;;;;5073847;28;20318;-76
2022/04/23 12:54:15;;;;;;;5.80;2.95;;;19.30;99.90;;;;;;5073430;28;20238;-76
2022/04/23 12:56:46;;;;;;;4.47;2.40;;;19.20;99.90;;;;;;5072811;28;20563;-75
2022/04/23 12:59:16;;;;;;;4.43;2.40;;;19.10;99.90;;;;;;5082846;28;20203;-75
2022/04/23 13:01:47;;;;;;;4.05;2.03;;;19.00;99.90;;;;;;5080393;28;20284;-75
2022/04/23 13:04:18;;;;;;;2.65;1.67;;;19.00;99.90;;;;;;5080820;28;20575;-75
2022/04/23 13:09:37;;;;;;;5.53;2.08;;;18.90;99.90;;;;;;5083054;28;20244;-76
2022/04/23 13:12:08;;;;;;;3.20;1.90;;;18.90;99.90;;;;;;5114726;28;20612;-77
2022/04/23 13:14:39;;;;;;;2.72;1.60;;;18.90;99.90;;;;;;5072163;28;20192;-77
2022/04/23 13:17:10;;;;;;;3.05;1.65;;;18.90;99.90;;;;;;5073701;28;20598;-77
2022/04/23 13:19:40;;;;;;;2.95;1.60;;;18.90;99.90;;;;;;5073221;28;20655;-76
2022/04/23 13:22:11;;;;;;;1.83;1.30;;;18.90;99.90;;;;;;5073010;28;20228;-75
2022/04/23 13:24:44;;;;;;;3.55;1.30;;;18.90;99.90;;;;;;5073305;28;20574;-78
2022/04/23 13:27:14;;;;;;;2.10;1.30;;;18.90;99.90;;;;;;5073326;28;20238;-75
2022/04/23 13:29:45;;;;;;;2.90;1.27;;;18.90;99.90;;;;;;5072849;28;20199;-76
2022/04/23 13:32:15;;;;;;;3.38;1.30;;;18.80;99.90;;;;;;5073186;28;20268;-75
2022/04/23 13:34:46;;;;;;;2.65;1.20;;;18.80;99.90;;;;;;5074057;28;20212;-75
2022/04/23 13:37:16;;;;;;;2.17;1.25;;;18.80;99.90;;;;;;5076900;28;20199;-76
2022/04/23 13:39:49;;;;;;;1.92;1.38;;;18.70;99.90;;;;;;5093119;28;20218;-76
2022/04/23 13:42:20;;;;;;;3.63;1.38;;;18.70;99.90;;;;;;5093252;28;20229;-76
2022/04/23 13:44:50;;;;;;;2.50;1.10;;;18.60;99.90;;;;;;5092750;28;20195;-76
2022/04/23 13:47:22;;;;;;;2.90;1.30;;;18.60;99.90;;;;;;5093197;28;20316;-75
2022/04/23 13:49:54;;;;;;;2.65;1.45;;;18.60;99.90;;;;;;5093034;28;20195;-75
2022/04/23 13:52:24;;;;;;;2.15;1.23;;;18.50;99.90;;;;;;5091692;28;20259;-75